sensor_id;sensor_type;location;lat;lon;timestamp;pressure;altitude;pressure_sealevel;temperature;humidity
61961;BME280;47923;42.506;24.192;2024-01-15T00:02:20;94918.84;;;-5.97;79.57
61961;BME280;47923;42.506;24.192;2024-01-15T00:04:45;94946.97;;;-5.87;78.96
61961;BME280;47923;42.506;24.192;2024-01-15T00:07:10;94968.97;;;-5.63;79.49
61961;BME280;47923;42.506;24.192;2024-01-15T00:09:36;94949.03;;;-5.79;78.43
61961;BME280;47923;42.506;24.192;2024-01-15T00:12:01;94733.25;;;-7.08;78.53
61961;BME280;47923;42.506;24.192;2024-01-15T00:14:28;94957.94;;;-5.65;78.86
61961;BME280;47923;42.506;24.192;2024-01-15T00:16:53;94772.34;;;-6.86;78.77
61961;BME280;47923;42.506;24.192;2024-01-15T00:19:21;94929.34;;;-5.97;78.56
61961;BME280;47923;42.506;24.192;2024-01-15T00:21:46;94967.44;;;-5.79;78.60
61961;BME280;47923;42.506;24.192;2024-01-15T00:24:12;94945.44;;;-6.08;78.80
61961;BME280;47923;42.506;24.192;2024-01-15T00:26:37;94927.81;;;-6.18;79.22
61961;BME280;47923;42.506;24.192;2024-01-15T00:29:03;94897.63;;;-6.31;79.07
61961;BME280;47923;42.506;24.192;2024-01-15T00:31:29;94870.56;;;-6.57;79.16
61961;BME280;47923;42.506;24.192;2024-01-15T00:33:55;94963.03;;;-5.99;79.63
61961;BME280;47923;42.506;24.192;2024-01-15T00:36:21;94947.25;;;-5.99;79.40
61961;BME280;47923;42.506;24.192;2024-01-15T00:38:46;94968.81;;;-5.97;79.19
61961;BME280;47923;42.506;24.192;2024-01-15T00:41:13;94781.81;;;-7.06;79.56
61961;BME280;47923;42.506;24.192;2024-01-15T00:43:38;94921.00;;;-6.14;79.57
61961;BME280;47923;42.506;24.192;2024-01-15T00:46:04;94891.31;;;-6.30;79.64
61961;BME280;47923;42.506;24.192;2024-01-15T00:48:30;94868.50;;;-6.60;79.14
61961;BME280;47923;42.506;24.192;2024-01-15T00:50:55;94955.19;;;-6.09;79.73
61961;BME280;47923;42.506;24.192;2024-01-15T00:53:21;94949.41;;;-6.16;80.21
61961;BME280;47923;42.506;24.192;2024-01-15T00:55:48;94949.66;;;-6.23;79.92
61961;BME280;47923;42.506;24.192;2024-01-15T00:58:13;94877.94;;;-6.64;79.74
61961;BME280;47923;42.506;24.192;2024-01-15T01:00:39;94951.22;;;-6.32;80.17
61961;BME280;47923;42.506;24.192;2024-01-15T01:03:04;94853.25;;;-7.04;80.39
61961;BME280;47923;42.506;24.192;2024-01-15T01:05:30;94951.75;;;-6.40;80.34
61961;BME280;47923;42.506;24.192;2024-01-15T01:07:55;94604.75;;;-8.66;80.46
61961;BME280;47923;42.506;24.192;2024-01-15T01:10:20;94955.72;;;-6.43;80.53
61961;BME280;47923;42.506;24.192;2024-01-15T01:12:46;94957.28;;;-6.42;81.50
61961;BME280;47923;42.506;24.192;2024-01-15T01:15:11;94892.91;;;-6.70;81.00
61961;BME280;47923;42.506;24.192;2024-01-15T01:17:37;94956.50;;;-6.27;80.88
61961;BME280;47923;42.506;24.192;2024-01-15T01:20:02;94889.75;;;-6.77;81.27
61961;BME280;47923;42.506;24.192;2024-01-15T01:22:29;94750.31;;;-7.67;81.24
61961;BME280;47923;42.506;24.192;2024-01-15T01:24:55;94948.63;;;-6.37;81.52
61961;BME280;47923;42.506;24.192;2024-01-15T01:27:21;94843.81;;;-7.10;81.46
61961;BME280;47923;42.506;24.192;2024-01-15T01:29:46;94822.50;;;-7.29;81.45
61961;BME280;47923;42.506;24.192;2024-01-15T01:32:12;94891.63;;;-6.98;81.37
61961;BME280;47923;42.506;24.192;2024-01-15T01:34:41;94916.28;;;-6.78;81.25
61961;BME280;47923;42.506;24.192;2024-01-15T01:37:10;94343.91;;;-10.57;80.36
61961;BME280;47923;42.506;24.192;2024-01-15T01:39:38;94936.53;;;-6.63;80.77
61961;BME280;47923;42.506;24.192;2024-01-15T01:42:03;94876.63;;;-7.02;82.09
61961;BME280;47923;42.506;24.192;2024-01-15T01:44:29;94951.78;;;-6.55;82.02
61961;BME280;47923;42.506;24.192;2024-01-15T01:46:54;94937.56;;;-6.54;82.23
61961;BME280;47923;42.506;24.192;2024-01-15T01:49:20;94752.94;;;-7.72;81.96
61961;BME280;47923;42.506;24.192;2024-01-15T01:51:46;94613.91;;;-8.64;81.66
61961;BME280;47923;42.506;24.192;2024-01-15T01:54:12;94926.28;;;-6.65;82.09
61961;BME280;47923;42.506;24.192;2024-01-15T01:56:40;94855.59;;;-7.28;81.82
61961;BME280;47923;42.506;24.192;2024-01-15T01:59:07;94904.19;;;-7.00;82.16
61961;BME280;47923;42.506;24.192;2024-01-15T02:01:35;94892.41;;;-6.97;82.38
61961;BME280;47923;42.506;24.192;2024-01-15T02:04:00;94886.84;;;-7.06;82.23
61961;BME280;47923;42.506;24.192;2024-01-15T02:06:26;94782.06;;;-7.73;82.23
61961;BME280;47923;42.506;24.192;2024-01-15T02:08:52;94863.47;;;-7.22;81.68
61961;BME280;47923;42.506;24.192;2024-01-15T02:11:18;94925.22;;;-6.79;81.94
61961;BME280;47923;42.506;24.192;2024-01-15T02:13:44;94295.72;;;-10.81;81.34
61961;BME280;47923;42.506;24.192;2024-01-15T02:16:09;94841.41;;;-7.21;82.78
61961;BME280;47923;42.506;24.192;2024-01-15T02:18:53;94915.50;;;-6.69;82.02
61961;BME280;47923;42.506;24.192;2024-01-15T02:21:18;94925.50;;;-6.71;82.13
61961;BME280;47923;42.506;24.192;2024-01-15T02:23:43;94923.41;;;-6.74;82.52
61961;BME280;47923;42.506;24.192;2024-01-15T02:26:09;94924.97;;;-6.78;83.02
61961;BME280;47923;42.506;24.192;2024-01-15T02:28:34;94872.41;;;-7.18;82.66
61961;BME280;47923;42.506;24.192;2024-01-15T02:31:00;94927.84;;;-6.84;82.71
61961;BME280;47923;42.506;24.192;2024-01-15T02:33:25;94856.66;;;-7.34;82.52
61961;BME280;47923;42.506;24.192;2024-01-15T02:35:51;94903.94;;;-7.08;82.88
61961;BME280;47923;42.506;24.192;2024-01-15T02:38:17;94926.78;;;-6.83;83.00
61961;BME280;47923;42.506;24.192;2024-01-15T02:40:43;94823.03;;;-7.47;83.74
61961;BME280;47923;42.506;24.192;2024-01-15T02:43:09;94897.09;;;-7.14;83.12
61961;BME280;47923;42.506;24.192;2024-01-15T02:45:34;94926.53;;;-6.92;83.05
61961;BME280;47923;42.506;24.192;2024-01-15T02:48:00;94912.09;;;-6.94;84.03
61961;BME280;47923;42.506;24.192;2024-01-15T02:50:25;94914.72;;;-6.89;84.11
61961;BME280;47923;42.506;24.192;2024-01-15T02:52:51;94901.31;;;-6.88;83.62
61961;BME280;47923;42.506;24.192;2024-01-15T02:55:16;94828.81;;;-7.35;83.56
61961;BME280;47923;42.506;24.192;2024-01-15T02:57:42;94903.94;;;-6.98;84.24
61961;BME280;47923;42.506;24.192;2024-01-15T03:00:08;94612.00;;;-8.88;83.43
61961;BME280;47923;42.506;24.192;2024-01-15T03:02:36;94851.91;;;-7.37;83.81
61961;BME280;47923;42.506;24.192;2024-01-15T03:05:04;94904.97;;;-6.99;84.05
61961;BME280;47923;42.506;24.192;2024-01-15T03:07:30;94864.25;;;-7.22;84.49
61961;BME280;47923;42.506;24.192;2024-01-15T03:09:55;94903.94;;;-6.98;84.13
61961;BME280;47923;42.506;24.192;2024-01-15T03:12:20;94299.81;;;-11.01;83.80
61961;BME280;47923;42.506;24.192;2024-01-15T03:14:46;94909.44;;;-7.10;84.67
61961;BME280;47923;42.506;24.192;2024-01-15T03:17:12;94820.63;;;-7.69;85.15
61961;BME280;47923;42.506;24.192;2024-01-15T03:19:37;94838.19;;;-7.64;85.16
61961;BME280;47923;42.506;24.192;2024-01-15T03:22:04;94898.91;;;-7.20;84.68
61961;BME280;47923;42.506;24.192;2024-01-15T03:24:31;94903.66;;;-7.17;85.21
61961;BME280;47923;42.506;24.192;2024-01-15T03:26:57;94808.50;;;-7.90;84.33
61961;BME280;47923;42.506;24.192;2024-01-15T03:29:22;94793.06;;;-7.76;84.68
61961;BME280;47923;42.506;24.192;2024-01-15T03:31:48;94896.28;;;-7.15;84.44
61961;BME280;47923;42.506;24.192;2024-01-15T03:34:13;94909.44;;;-7.15;84.55
61961;BME280;47923;42.506;24.192;2024-01-15T03:36:39;94880.00;;;-7.32;85.28
61961;BME280;47923;42.506;24.192;2024-01-15T03:39:04;94732.41;;;-8.11;85.27
61961;BME280;47923;42.506;24.192;2024-01-15T03:41:29;94393.13;;;-10.23;85.17
61961;BME280;47923;42.506;24.192;2024-01-15T03:43:55;94644.00;;;-8.61;84.58
61961;BME280;47923;42.506;24.192;2024-01-15T03:46:20;94856.09;;;-7.36;85.26
61961;BME280;47923;42.506;24.192;2024-01-15T03:48:46;94794.34;;;-7.79;85.39
61961;BME280;47923;42.506;24.192;2024-01-15T03:51:11;94825.13;;;-7.49;85.43
61961;BME280;47923;42.506;24.192;2024-01-15T03:53:38;94874.50;;;-7.20;85.07
61961;BME280;47923;42.506;24.192;2024-01-15T03:56:03;94870.84;;;-7.19;85.32
61961;BME280;47923;42.506;24.192;2024-01-15T03:58:29;94871.88;;;-7.20;85.13
61961;BME280;47923;42.506;24.192;2024-01-15T04:00:54;94870.84;;;-7.19;85.05
61961;BME280;47923;42.506;24.192;2024-01-15T04:03:20;94714.84;;;-8.15;85.27
61961;BME280;47923;42.506;24.192;2024-01-15T04:05:45;94709.84;;;-8.17;85.66
61961;BME280;47923;42.506;24.192;2024-01-15T04:08:10;94872.16;;;-7.17;85.70
61961;BME280;47923;42.506;24.192;2024-01-15T04:10:36;94873.97;;;-7.22;85.24
61961;BME280;47923;42.506;24.192;2024-01-15T04:13:01;94851.91;;;-7.47;84.98
61961;BME280;47923;42.506;24.192;2024-01-15T04:15:28;94811.19;;;-7.65;84.84
61961;BME280;47923;42.506;24.192;2024-01-15T04:17:54;94869.78;;;-7.24;85.28
61961;BME280;47923;42.506;24.192;2024-01-15T04:20:19;94879.75;;;-7.20;85.31
61961;BME280;47923;42.506;24.192;2024-01-15T04:22:45;94857.94;;;-7.36;85.23
61961;BME280;47923;42.506;24.192;2024-01-15T04:25:10;94842.47;;;-7.33;85.08
61961;BME280;47923;42.506;24.192;2024-01-15T04:27:35;94772.91;;;-7.61;84.79
61961;BME280;47923;42.506;24.192;2024-01-15T04:30:01;94871.91;;;-7.00;85.47
61961;BME280;47923;42.506;24.192;2024-01-15T04:32:26;94893.44;;;-7.03;85.20
61961;BME280;47923;42.506;24.192;2024-01-15T04:34:52;94709.13;;;-8.07;84.27
61961;BME280;47923;42.506;24.192;2024-01-15T04:37:17;94866.66;;;-7.10;84.78
61961;BME280;47923;42.506;24.192;2024-01-15T04:39:42;94868.19;;;-7.14;84.86
61961;BME280;47923;42.506;24.192;2024-01-15T04:42:08;94783.91;;;-7.64;84.78
61961;BME280;47923;42.506;24.192;2024-01-15T04:44:33;94747.94;;;-7.79;85.10
61961;BME280;47923;42.506;24.192;2024-01-15T04:46:59;94863.50;;;-7.17;85.25
61961;BME280;47923;42.506;24.192;2024-01-15T04:49:24;94573.47;;;-9.08;85.89
61961;BME280;47923;42.506;24.192;2024-01-15T04:51:52;94713.78;;;-8.24;85.62
61961;BME280;47923;42.506;24.192;2024-01-15T04:54:18;94486.09;;;-9.70;85.73
61961;BME280;47923;42.506;24.192;2024-01-15T04:56:44;94861.38;;;-7.31;86.53
61961;BME280;47923;42.506;24.192;2024-01-15T04:59:10;94856.09;;;-7.36;85.89
61961;BME280;47923;42.506;24.192;2024-01-15T05:01:35;94795.94;;;-7.83;85.67
61961;BME280;47923;42.506;24.192;2024-01-15T05:04:01;94864.75;;;-7.45;85.99
61961;BME280;47923;42.506;24.192;2024-01-15T05:06:26;94579.91;;;-9.26;85.36
61961;BME280;47923;42.506;24.192;2024-01-15T05:08:52;94709.81;;;-8.47;85.50
61961;BME280;47923;42.506;24.192;2024-01-15T05:11:17;94799.59;;;-7.89;85.04
61961;BME280;47923;42.506;24.192;2024-01-15T05:13:43;94695.91;;;-8.58;85.37
61961;BME280;47923;42.506;24.192;2024-01-15T05:16:08;94839.03;;;-7.54;85.22
61961;BME280;47923;42.506;24.192;2024-01-15T05:18:34;94725.03;;;-8.29;84.84
61961;BME280;47923;42.506;24.192;2024-01-15T05:20:59;94827.47;;;-7.53;85.14
61961;BME280;47923;42.506;24.192;2024-01-15T05:23:24;94764.97;;;-7.86;86.03
61961;BME280;47923;42.506;24.192;2024-01-15T05:25:50;94623.78;;;-8.86;85.48
61961;BME280;47923;42.506;24.192;2024-01-15T05:28:15;94835.09;;;-7.56;85.60
61961;BME280;47923;42.506;24.192;2024-01-15T05:30:41;94826.91;;;-7.65;85.54
61961;BME280;47923;42.506;24.192;2024-01-15T05:33:06;94726.88;;;-8.24;85.92
61961;BME280;47923;42.506;24.192;2024-01-15T05:35:33;94859.75;;;-7.42;86.13
61961;BME280;47923;42.506;24.192;2024-01-15T05:37:58;94873.69;;;-7.36;86.15
61961;BME280;47923;42.506;24.192;2024-01-15T05:40:24;94855.84;;;-7.39;85.81
61961;BME280;47923;42.506;24.192;2024-01-15T05:42:49;94847.19;;;-7.35;86.41
61961;BME280;47923;42.506;24.192;2024-01-15T05:45:14;94848.25;;;-7.31;86.34
61961;BME280;47923;42.506;24.192;2024-01-15T05:47:40;94782.84;;;-7.68;86.88
61961;BME280;47923;42.506;24.192;2024-01-15T05:50:05;94799.66;;;-7.59;86.49
61961;BME280;47923;42.506;24.192;2024-01-15T05:52:32;94824.34;;;-7.39;85.83
61961;BME280;47923;42.506;24.192;2024-01-15T05:54:57;94816.72;;;-7.46;86.13
61961;BME280;47923;42.506;24.192;2024-01-15T05:57:23;94843.78;;;-7.30;86.10
61961;BME280;47923;42.506;24.192;2024-01-15T05:59:48;94726.66;;;-8.13;86.32
61961;BME280;47923;42.506;24.192;2024-01-15T06:02:14;94845.09;;;-7.33;86.26
61961;BME280;47923;42.506;24.192;2024-01-15T06:04:39;94790.44;;;-7.71;85.59
61961;BME280;47923;42.506;24.192;2024-01-15T06:07:05;94655.03;;;-8.54;86.08
61961;BME280;47923;42.506;24.192;2024-01-15T06:09:30;94845.38;;;-7.19;86.03
61961;BME280;47923;42.506;24.192;2024-01-15T06:11:57;94772.91;;;-7.71;86.01
61961;BME280;47923;42.506;24.192;2024-01-15T06:14:22;94741.69;;;-7.62;86.31
61961;BME280;47923;42.506;24.192;2024-01-15T06:16:47;94822.25;;;-6.86;85.41
61961;BME280;47923;42.506;24.192;2024-01-15T06:19:13;94830.66;;;-6.84;85.24
61961;BME280;47923;42.506;24.192;2024-01-15T06:21:38;94748.25;;;-7.29;85.40
61961;BME280;47923;42.506;24.192;2024-01-15T06:24:04;94613.44;;;-8.15;84.74
61961;BME280;47923;42.506;24.192;2024-01-15T06:26:29;94747.44;;;-7.14;84.80
61961;BME280;47923;42.506;24.192;2024-01-15T06:28:55;94814.59;;;-6.57;84.54
61961;BME280;47923;42.506;24.192;2024-01-15T06:31:21;94638.31;;;-7.61;84.53
61961;BME280;47923;42.506;24.192;2024-01-15T06:33:46;94827.16;;;-6.29;83.97
61961;BME280;47923;42.506;24.192;2024-01-15T06:36:13;94796.41;;;-6.28;84.19
61961;BME280;47923;42.506;24.192;2024-01-15T06:38:39;94778.94;;;-5.99;84.07
61961;BME280;47923;42.506;24.192;2024-01-15T06:41:04;94410.03;;;-8.05;83.83
61961;BME280;47923;42.506;24.192;2024-01-15T06:43:32;94734.81;;;-5.73;82.77
61961;BME280;47923;42.506;24.192;2024-01-15T06:45:58;94581.84;;;-6.24;80.93
61961;BME280;47923;42.506;24.192;2024-01-15T06:48:23;94779.97;;;-4.58;79.86
61961;BME280;47923;42.506;24.192;2024-01-15T06:50:52;94811.97;;;-3.93;78.30
61961;BME280;47923;42.506;24.192;2024-01-15T06:53:18;94603.38;;;-5.30;75.41
61961;BME280;47923;42.506;24.192;2024-01-15T06:55:43;94722.59;;;-4.00;74.64
61961;BME280;47923;42.506;24.192;2024-01-15T06:58:08;94715.69;;;-3.58;73.64
61961;BME280;47923;42.506;24.192;2024-01-15T07:00:37;94741.75;;;-1.26;67.68
61961;BME280;47923;42.506;24.192;2024-01-15T07:03:03;94610.22;;;-0.82;59.30
61961;BME280;47923;42.506;24.192;2024-01-15T07:05:29;94656.53;;;-0.89;57.06
61961;BME280;47923;42.506;24.192;2024-01-15T07:07:56;94817.41;;;0.58;55.54
61961;BME280;47923;42.506;24.192;2024-01-15T07:10:21;94737.06;;;0.78;53.39
61961;BME280;47923;42.506;24.192;2024-01-15T07:12:47;94819.78;;;2.77;48.44
61961;BME280;47923;42.506;24.192;2024-01-15T07:15:12;94794.94;;;2.35;47.88
61961;BME280;47923;42.506;24.192;2024-01-15T07:17:38;94792.47;;;1.10;50.66
61961;BME280;47923;42.506;24.192;2024-01-15T07:20:06;94770.47;;;0.27;53.71
61961;BME280;47923;42.506;24.192;2024-01-15T07:22:33;94813.53;;;0.55;55.48
61961;BME280;47923;42.506;24.192;2024-01-15T07:24:58;94788.72;;;1.03;54.04
61961;BME280;47923;42.506;24.192;2024-01-15T07:27:24;94687.31;;;1.04;52.62
61961;BME280;47923;42.506;24.192;2024-01-15T07:29:49;94824.88;;;3.33;48.54
61961;BME280;47923;42.506;24.192;2024-01-15T07:32:15;94636.47;;;4.46;44.38
61961;BME280;47923;42.506;24.192;2024-01-15T07:34:40;94726.38;;;5.59;40.97
61961;BME280;47923;42.506;24.192;2024-01-15T07:37:06;94806.28;;;5.01;43.53
61961;BME280;47923;42.506;24.192;2024-01-15T07:39:32;94824.34;;;4.06;46.06
61961;BME280;47923;42.506;24.192;2024-01-15T07:41:58;94635.78;;;1.56;48.47
61961;BME280;47923;42.506;24.192;2024-01-15T07:44:23;94409.25;;;-0.16;49.97
61961;BME280;47923;42.506;24.192;2024-01-15T07:46:49;94829.91;;;2.63;49.97
61961;BME280;47923;42.506;24.192;2024-01-15T07:49:14;94772.84;;;2.26;50.51
61961;BME280;47923;42.506;24.192;2024-01-15T07:51:40;94836.00;;;2.64;50.69
61961;BME280;47923;42.506;24.192;2024-01-15T07:54:06;94773.34;;;2.19;51.08
61961;BME280;47923;42.506;24.192;2024-01-15T07:56:32;94715.69;;;1.47;52.06
61961;BME280;47923;42.506;24.192;2024-01-15T07:58:57;94846.66;;;2.34;52.44
61961;BME280;47923;42.506;24.192;2024-01-15T08:01:23;94836.69;;;2.22;52.55
61961;BME280;47923;42.506;24.192;2024-01-15T08:03:48;94832.78;;;2.49;51.62
61961;BME280;47923;42.506;24.192;2024-01-15T08:06:14;94836.94;;;2.38;52.66
61961;BME280;47923;42.506;24.192;2024-01-15T08:08:39;94844.06;;;2.17;53.15
61961;BME280;47923;42.506;24.192;2024-01-15T08:11:05;94839.75;;;1.95;53.89
61961;BME280;47923;42.506;24.192;2024-01-15T08:13:30;94809.28;;;1.66;55.19
61961;BME280;47923;42.506;24.192;2024-01-15T08:15:56;94854.41;;;1.46;57.74
61961;BME280;47923;42.506;24.192;2024-01-15T08:18:21;94767.72;;;0.93;58.31
61961;BME280;47923;42.506;24.192;2024-01-15T08:20:47;94736.75;;;0.79;58.18
61961;BME280;47923;42.506;24.192;2024-01-15T08:23:12;94831.25;;;1.29;59.12
61961;BME280;47923;42.506;24.192;2024-01-15T08:25:37;94836.91;;;1.19;59.96
61961;BME280;47923;42.506;24.192;2024-01-15T08:28:03;94612.75;;;-0.12;59.56
61961;BME280;47923;42.506;24.192;2024-01-15T08:30:29;94844.25;;;1.48;59.50
61961;BME280;47923;42.506;24.192;2024-01-15T08:32:55;94839.41;;;1.32;59.27
61961;BME280;47923;42.506;24.192;2024-01-15T08:35:20;94707.50;;;0.53;59.88
61961;BME280;47923;42.506;24.192;2024-01-15T08:37:49;94672.34;;;0.31;60.37
61961;BME280;47923;42.506;24.192;2024-01-15T08:40:15;94785.88;;;1.25;59.94
61961;BME280;47923;42.506;24.192;2024-01-15T08:42:41;94802.84;;;1.67;58.68
61961;BME280;47923;42.506;24.192;2024-01-15T08:45:06;94806.28;;;1.77;58.86
61961;BME280;47923;42.506;24.192;2024-01-15T08:47:32;94813.00;;;1.91;58.40
61961;BME280;47923;42.506;24.192;2024-01-15T08:49:57;94794.16;;;1.97;57.66
61961;BME280;47923;42.506;24.192;2024-01-15T08:52:24;94798.94;;;2.20;58.20
61961;BME280;47923;42.506;24.192;2024-01-15T08:54:49;94799.34;;;2.31;58.11
61961;BME280;47923;42.506;24.192;2024-01-15T08:57:15;94725.16;;;1.65;58.97
61961;BME280;47923;42.506;24.192;2024-01-15T08:59:41;94802.06;;;2.52;57.54
61961;BME280;47923;42.506;24.192;2024-01-15T09:02:06;94783.09;;;2.95;55.07
61961;BME280;47923;42.506;24.192;2024-01-15T09:04:33;94726.50;;;3.56;52.88
61961;BME280;47923;42.506;24.192;2024-01-15T09:06:58;94641.56;;;2.59;51.55
61961;BME280;47923;42.506;24.192;2024-01-15T09:09:23;94774.50;;;2.90;53.20
61961;BME280;47923;42.506;24.192;2024-01-15T09:11:51;94587.25;;;1.21;55.15
61961;BME280;47923;42.506;24.192;2024-01-15T09:14:17;94784.75;;;3.42;53.71
61961;BME280;47923;42.506;24.192;2024-01-15T09:16:42;94776.19;;;3.94;51.57
61961;BME280;47923;42.506;24.192;2024-01-15T09:19:08;94628.91;;;3.46;50.71
61961;BME280;47923;42.506;24.192;2024-01-15T09:21:33;94732.00;;;4.33;50.64
61961;BME280;47923;42.506;24.192;2024-01-15T09:23:59;94706.66;;;4.55;49.87
61961;BME280;47923;42.506;24.192;2024-01-15T09:26:24;94743.19;;;5.43;48.38
61961;BME280;47923;42.506;24.192;2024-01-15T09:28:50;94738.63;;;6.19;46.69
61961;BME280;47923;42.506;24.192;2024-01-15T09:31:15;94737.25;;;6.96;45.14
61961;BME280;47923;42.506;24.192;2024-01-15T09:33:43;94651.00;;;6.78;43.85
61961;BME280;47923;42.506;24.192;2024-01-15T09:36:09;94721.63;;;7.59;43.50
61961;BME280;47923;42.506;24.192;2024-01-15T09:38:34;94644.69;;;7.09;43.28
61961;BME280;47923;42.506;24.192;2024-01-15T09:41:00;94670.69;;;7.05;43.18
61961;BME280;47923;42.506;24.192;2024-01-15T09:43:26;94705.69;;;7.70;42.64
61961;BME280;47923;42.506;24.192;2024-01-15T09:45:51;94520.31;;;7.28;40.97
61961;BME280;47923;42.506;24.192;2024-01-15T09:48:18;94689.31;;;8.77;38.95
61961;BME280;47923;42.506;24.192;2024-01-15T09:50:44;94668.81;;;9.33;36.67
61961;BME280;47923;42.506;24.192;2024-01-15T09:53:09;94659.81;;;9.22;35.03
61961;BME280;47923;42.506;24.192;2024-01-15T09:55:36;94594.97;;;9.45;35.95
61961;BME280;47923;42.506;24.192;2024-01-15T09:58:03;94672.75;;;10.24;34.86
61961;BME280;47923;42.506;24.192;2024-01-15T10:00:29;94656.22;;;10.29;35.52
61961;BME280;47923;42.506;24.192;2024-01-15T10:02:58;94659.22;;;9.02;37.42
61961;BME280;47923;42.506;24.192;2024-01-15T10:05:26;94576.03;;;8.97;37.38
61961;BME280;47923;42.506;24.192;2024-01-15T10:07:53;94456.16;;;9.21;35.19
61961;BME280;47923;42.506;24.192;2024-01-15T10:10:18;94568.56;;;10.96;34.34
61961;BME280;47923;42.506;24.192;2024-01-15T10:12:44;94641.41;;;12.04;32.92
61961;BME280;47923;42.506;24.192;2024-01-15T10:15:10;94641.75;;;11.78;32.75
61961;BME280;47923;42.506;24.192;2024-01-15T10:17:39;94585.56;;;12.75;32.87
61961;BME280;47923;42.506;24.192;2024-01-15T10:20:09;94589.44;;;12.81;29.91
61961;BME280;47923;42.506;24.192;2024-01-15T10:22:35;94633.28;;;12.36;30.27
61961;BME280;47923;42.506;24.192;2024-01-15T10:25:03;94536.53;;;10.87;31.39
61961;BME280;47923;42.506;24.192;2024-01-15T10:27:29;94566.88;;;10.56;31.94
61961;BME280;47923;42.506;24.192;2024-01-15T10:29:59;94536.00;;;9.36;33.35
61961;BME280;47923;42.506;24.192;2024-01-15T10:32:24;94541.56;;;8.76;34.15
61961;BME280;47923;42.506;24.192;2024-01-15T10:34:52;94620.78;;;9.42;35.00
61961;BME280;47923;42.506;24.192;2024-01-15T10:37:17;94625.66;;;9.70;34.68
61961;BME280;47923;42.506;24.192;2024-01-15T10:39:43;94408.94;;;8.45;34.41
61961;BME280;47923;42.506;24.192;2024-01-15T10:42:09;94614.66;;;9.93;34.44
61961;BME280;47923;42.506;24.192;2024-01-15T10:44:35;94573.03;;;10.56;33.32
61961;BME280;47923;42.506;24.192;2024-01-15T10:47:01;94492.47;;;10.79;32.13
61961;BME280;47923;42.506;24.192;2024-01-15T10:49:26;94455.84;;;11.14;31.29
61961;BME280;47923;42.506;24.192;2024-01-15T10:51:53;94582.75;;;12.99;30.88
61961;BME280;47923;42.506;24.192;2024-01-15T10:54:19;94529.91;;;13.36;29.00
61961;BME280;47923;42.506;24.192;2024-01-15T10:56:46;94536.63;;;13.10;29.60
61961;BME280;47923;42.506;24.192;2024-01-15T10:59:13;94498.06;;;12.78;29.35
61961;BME280;47923;42.506;24.192;2024-01-15T11:01:39;94399.00;;;11.82;29.64
61961;BME280;47923;42.506;24.192;2024-01-15T11:04:05;94355.06;;;10.46;30.24
61961;BME280;47923;42.506;24.192;2024-01-15T11:06:42;94377.63;;;9.95;31.60
61961;BME280;47923;42.506;24.192;2024-01-15T11:09:08;94480.19;;;11.18;30.64
61961;BME280;47923;42.506;24.192;2024-01-15T11:11:44;94584.16;;;11.63;31.39
61961;BME280;47923;42.506;24.192;2024-01-15T11:14:09;94373.78;;;9.23;32.14
61961;BME280;47923;42.506;24.192;2024-01-15T11:16:55;94543.56;;;11.34;30.93
61961;BME280;47923;42.506;24.192;2024-01-15T11:19:36;94540.84;;;11.45;31.22
61961;BME280;47923;42.506;24.192;2024-01-15T11:22:02;94565.22;;;11.56;31.47
61961;BME280;47923;42.506;24.192;2024-01-15T11:24:39;94535.75;;;10.94;31.96
61961;BME280;47923;42.506;24.192;2024-01-15T11:27:07;94559.69;;;10.99;32.81
61961;BME280;47923;42.506;24.192;2024-01-15T11:29:35;94571.84;;;10.43;32.48
61961;BME280;47923;42.506;24.192;2024-01-15T11:32:07;94509.47;;;9.45;33.76
61961;BME280;47923;42.506;24.192;2024-01-15T11:37:20;94556.31;;;10.26;33.85
61961;BME280;47923;42.506;24.192;2024-01-15T11:39:47;94319.97;;;8.79;32.99
61961;BME280;47923;42.506;24.192;2024-01-15T11:42:14;94554.59;;;10.65;32.90
61961;BME280;47923;42.506;24.192;2024-01-15T11:44:40;94297.19;;;8.66;33.21
61961;BME280;47923;42.506;24.192;2024-01-15T11:47:07;94424.06;;;9.56;32.70
61961;BME280;47923;42.506;24.192;2024-01-15T11:50:04;94551.94;;;9.55;33.25
61961;BME280;47923;42.506;24.192;2024-01-15T11:52:38;94519.25;;;9.16;34.37
61961;BME280;47923;42.506;24.192;2024-01-15T11:55:26;94542.84;;;9.30;33.69
61961;BME280;47923;42.506;24.192;2024-01-15T11:57:53;94476.69;;;8.92;33.61
61961;BME280;47923;42.506;24.192;2024-01-15T12:00:21;94357.19;;;8.63;34.02
61961;BME280;47923;42.506;24.192;2024-01-15T12:02:48;94525.59;;;9.86;33.65
61961;BME280;47923;42.506;24.192;2024-01-15T12:05:15;94527.03;;;9.73;33.21
61961;BME280;47923;42.506;24.192;2024-01-15T12:07:43;94342.53;;;9.11;33.22
61961;BME280;47923;42.506;24.192;2024-01-15T12:10:10;94435.25;;;9.58;33.60
61961;BME280;47923;42.506;24.192;2024-01-15T12:15:05;94303.94;;;8.04;34.79
61961;BME280;47923;42.506;24.192;2024-01-15T12:17:30;94507.03;;;9.26;35.16
61961;BME280;47923;42.506;24.192;2024-01-15T12:19:57;94424.31;;;8.85;35.16
61961;BME280;47923;42.506;24.192;2024-01-15T12:22:22;94525.34;;;9.54;34.73
61961;BME280;47923;42.506;24.192;2024-01-15T12:24:47;94510.97;;;9.39;35.18
61961;BME280;47923;42.506;24.192;2024-01-15T12:27:13;94532.25;;;9.48;34.10
61961;BME280;47923;42.506;24.192;2024-01-15T12:29:39;94453.25;;;8.96;34.75
61961;BME280;47923;42.506;24.192;2024-01-15T12:32:05;94389.47;;;8.63;35.77
61961;BME280;47923;42.506;24.192;2024-01-15T12:34:30;94509.19;;;9.57;35.33
61961;BME280;47923;42.506;24.192;2024-01-15T12:36:57;94506.28;;;9.29;34.78
61961;BME280;47923;42.506;24.192;2024-01-15T12:39:24;94503.59;;;9.29;34.23
61961;BME280;47923;42.506;24.192;2024-01-15T12:41:50;94458.69;;;9.03;34.69
61961;BME280;47923;42.506;24.192;2024-01-15T12:44:16;94433.78;;;9.13;33.58
61961;BME280;47923;42.506;24.192;2024-01-15T12:46:42;94462.28;;;9.18;34.02
61961;BME280;47923;42.506;24.192;2024-01-15T12:49:08;94522.13;;;9.34;34.29
61961;BME280;47923;42.506;24.192;2024-01-15T12:51:34;94305.00;;;7.59;34.90
61961;BME280;47923;42.506;24.192;2024-01-15T12:54:00;94406.00;;;8.24;34.83